Novomar — 5BCT2 — position and weather

sailwx.info

Track history (hours):
 
Tides and Currents Weather Stations Pressure Air Temp Water Temp Dewpoint Dewpoint Depression Visibility Wind Speed Wind Dir Waves Ship Positions

Novomar

Last reported at 2015-Jan-29 20:33 UTC. Time now 2015-Jan-30 23:27 UTC.
Position N 58°39' W 002°52'.

Length 89 m; draft 5.1 m.

Type: Cargo ship. MMSI: 210974000.

Date/timePositionNaut miles runAvg speedWind from/ knotsBaromVisibWave heightAir tempDewpointWater temp
2015-Jan-29 20:33N 58°39' W 002°52'1210.7
2015-Jan-29 19:24N 58°43' W 003°14'1111.0
2015-Jan-29 18:24N 58°42' W 003°35'910.3
2015-Jan-29 17:33N 58°42' W 003°52'1010.5
2015-Jan-29 16:33N 58°41' W 004°12'160 6.4
2015-Jan-28 15:27N 56°08' W 005°40'57 7.0
2015-Jan-28 07:22N 55°11' W 005°45'16 8.9
2015-Jan-28 05:33N 54°58' W 005°29'8 8.5
2015-Jan-28 04:33N 54°51' W 005°21'8 8.2
2015-Jan-28 03:34N 54°43' W 005°16'8 8.4
2015-Jan-28 02:33N 54°35' W 005°10'9 8.6
2015-Jan-28 01:32N 54°27' W 005°06'9 9.0
2015-Jan-28 00:33N 54°18' W 005°03'  
Track history (hours):
 
Tides and Currents Weather Stations Pressure Air Temp Water Temp Dewpoint Dewpoint Depression Visibility Wind Speed Wind Dir Waves Ship Positions

Novomar

Last reported at 2015-Jan-29 20:33 UTC. Time now 2015-Jan-30 23:27 UTC.
Position N 58°39' W 002°52'.

Length 89 m; draft 5.1 m.

Type: Cargo ship. MMSI: 210974000.

Date/timePositionNaut miles runAvg speedWind from/ knotsBaromVisibWave heightAir tempDewpointWater temp
2015-Jan-29 20:33N 58°39' W 002°52'1210.7
2015-Jan-29 19:24N 58°43' W 003°14'1111.0
2015-Jan-29 18:24N 58°42' W 003°35'910.3
2015-Jan-29 17:33N 58°42' W 003°52'1010.5
2015-Jan-29 16:33N 58°41' W 004°12'160 6.4
2015-Jan-28 15:27N 56°08' W 005°40'57 7.0
2015-Jan-28 07:22N 55°11' W 005°45'16 8.9
2015-Jan-28 05:33N 54°58' W 005°29'8 8.5
2015-Jan-28 04:33N 54°51' W 005°21'8 8.2
2015-Jan-28 03:34N 54°43' W 005°16'8 8.4
2015-Jan-28 02:33N 54°35' W 005°10'9 8.6
2015-Jan-28 01:32N 54°27' W 005°06'9 9.0
2015-Jan-28 00:33N 54°18' W 005°03'  

Dump ship's entire track history